CW6020 Teulada ES current weather conditions

sailwx.info

Wind from 315 at 3 knots gusting 5

Air temperature 17.8° C
Dewpoint 1.7° C

Last reported at 2015-Feb-27 10:46 UTC.
Time now 2015-Feb-27 11:44 UTC

Location: N 38°44' E 000°06'.
View on Google Maps.

See reports from other nearby stations

  
Tides and Currents Weather Stations Pressure Air Temp Water Temp Dewpoint Dewpoint Depression Visibility Wind Speed Wind Dir Waves Ship Positions
date/time (UTC)wind fromknots sea level pressurealtimeterstation pressurevisibilityair tempwater tempwave heightnotes
2015-Feb-27 10:46 315 3 gusting 5 17.8
2015-Feb-27 10:36 315 5 gusting 9 17.8
2015-Feb-27 10:26 315 9 gusting 14 17.8
2015-Feb-27 10:16 337 5 gusting 9 17.8
2015-Feb-27 10:06 045 2 gusting 5 17.8
2015-Feb-27 09:56 17.8
2015-Feb-27 09:46 315 5 gusting 8 17.2
2015-Feb-27 09:36 315 7 gusting 10 17.2
2015-Feb-27 09:26 17.2
2015-Feb-27 09:16 045 4 gusting 6 17.2
2015-Feb-27 09:06 315 4 gusting 6 16.7
2015-Feb-27 08:56 315 2 gusting 3 16.7
2015-Feb-27 08:46 045 5 gusting 7 16.7
2015-Feb-27 08:36 16.7
2015-Feb-27 08:26 090 4 gusting 7 16.1
2015-Feb-27 08:16 315 1 gusting 2 16.1
2015-Feb-27 08:06 270 2 gusting 6 15.6
2015-Feb-27 07:56 270 0 gusting 2 15.6
2015-Feb-27 07:46 270 0 gusting 5 15.6
2015-Feb-27 07:36 022 4 gusting 6 15.0
2015-Feb-27 07:26 270 1 gusting 2 15.0
2015-Feb-27 07:16 14.4
2015-Feb-27 07:06 270 0 gusting 2 14.4
2015-Feb-27 06:56 315 3 gusting 6 14.4
2015-Feb-27 06:46 315 2 gusting 5 15.0
2015-Feb-27 06:36 270 1 gusting 10 15.0
2015-Feb-27 06:26 315 2 gusting 6 15.0
2015-Feb-27 06:16 315 15.0
2015-Feb-27 06:06 045 1 gusting 3 15.0
2015-Feb-27 05:56 292 2 gusting 3 15.0
2015-Feb-27 05:46 090 2 gusting 4 15.0
2015-Feb-27 05:31 270 1 gusting 3 15.0
2015-Feb-27 05:21 247 2 gusting 3 15.0
2015-Feb-27 05:06 045 15.0
2015-Feb-27 04:56 090 1 gusting 2 15.0
2015-Feb-27 04:46 045 0 gusting 1 15.0
2015-Feb-27 04:36 15.6
2015-Feb-27 04:26 045 15.6
2015-Feb-27 04:16 315 2 gusting 3 15.6
2015-Feb-27 04:06 315 3 gusting 6 15.6
2015-Feb-27 03:56 045 1 gusting 2 15.6
2015-Feb-27 03:46 315 0 gusting 2 15.0
2015-Feb-27 03:36 090 0 gusting 1 15.0
2015-Feb-27 03:26 045 2 gusting 4 15.0
2015-Feb-27 03:16 225 2 gusting 2 15.0
2015-Feb-27 03:06 15.6
2015-Feb-27 02:56 045 1 gusting 2 15.6
2015-Feb-27 02:46 292 2 gusting 4 15.6
2015-Feb-27 02:36 315 2 gusting 3 15.0
2015-Feb-27 02:26 315 1 gusting 2 15.0
2015-Feb-27 02:16 315 2 gusting 5 15.0
2015-Feb-27 02:05 315 0 gusting 1 15.0
2015-Feb-27 01:51 15.0
2015-Feb-27 01:41 14.4
2015-Feb-27 01:31 045 2 gusting 5 15.0
2015-Feb-27 01:21 045 1 gusting 3 15.0
2015-Feb-27 01:11 045 0 gusting 2 15.6
2015-Feb-27 01:01 045 2 gusting 6 15.6
2015-Feb-27 00:51 045 0 gusting 1 15.6
2015-Feb-27 00:37 15.6
2015-Feb-27 00:26 045 3 gusting 5 15.6
2015-Feb-27 00:16 292 2 gusting 4 15.6
2015-Feb-27 00:06 15.0
2015-Feb-26 23:56 315 3 gusting 7 15.0
2015-Feb-26 23:46 14.4
2015-Feb-26 23:36 090 14.4
2015-Feb-26 23:25 315 0 gusting 1 14.4
2015-Feb-26 23:11 315 2 gusting 6 13.9
2015-Feb-26 23:01 12.2
2015-Feb-26 22:46 315 0 gusting 1 10.6
2015-Feb-26 22:36 045 10.6
2015-Feb-26 22:26 10.6
2015-Feb-26 22:16 10.6
2015-Feb-26 22:06 090 11.1
2015-Feb-26 21:56 11.7
2015-Feb-26 21:46 11.7
2015-Feb-26 21:30 045 0 gusting 0 11.7
2015-Feb-26 21:16 12.2
2015-Feb-26 21:06 12.8
2015-Feb-26 20:56 12.8
2015-Feb-26 20:46 13.3
2015-Feb-26 20:36 13.3
2015-Feb-26 20:26 225 0 gusting 1 13.3
2015-Feb-26 20:16 13.9
2015-Feb-26 20:06 13.9
2015-Feb-26 19:56 13.9
2015-Feb-26 19:46 225 13.9
2015-Feb-26 19:36 13.9
2015-Feb-26 19:26 13.9
2015-Feb-26 19:16 13.9
2015-Feb-26 19:06 090 0 gusting 1 14.4
2015-Feb-26 18:56 14.4
2015-Feb-26 18:46 135 15.0
2015-Feb-26 18:36 135 15.0
2015-Feb-26 18:26 180 15.0
2015-Feb-26 18:16 15.0
2015-Feb-26 18:06 180 15.0
2015-Feb-26 17:56 15.6
2015-Feb-26 17:46 180 15.6
2015-Feb-26 17:36 180 0 gusting 1 15.6
2015-Feb-26 17:26 180 0 gusting 1 16.1
2015-Feb-26 17:16 180 0 gusting 2 16.1
2015-Feb-26 17:06 202 0 gusting 2 17.2
2015-Feb-26 16:56 180 2 gusting 4 17.2
2015-Feb-26 16:46 180 1 gusting 2 17.2
2015-Feb-26 16:36 225 3 gusting 6 18.3
2015-Feb-26 16:26 225 4 gusting 5 19.4
2015-Feb-26 16:16 180 2 gusting 6 20.0
2015-Feb-26 16:06 180 3 gusting 6 20.0
2015-Feb-26 15:56 225 5 gusting 6 20.0
2015-Feb-26 15:46 090 2 gusting 5 20.6
2015-Feb-26 15:36 135 2 gusting 4 21.1
2015-Feb-26 15:26 135 2 gusting 5 20.0
2015-Feb-26 15:16 225 2 gusting 5 19.4
2015-Feb-26 15:06 225 2 gusting 6 18.9
2015-Feb-26 14:56 225 2 gusting 5 19.4
2015-Feb-26 14:46 180 2 gusting 4 20.0
2015-Feb-26 14:36 180 2 gusting 4 20.6
2015-Feb-26 14:26 180 2 gusting 5 20.0
2015-Feb-26 14:16 225 4 gusting 7 18.9
2015-Feb-26 14:06 180 2 gusting 4 18.9
2015-Feb-26 13:56 180 2 gusting 2 19.4
2015-Feb-26 13:46 225 0 gusting 2 20.0
2015-Feb-26 13:36 225 6 gusting 8 21.1
2015-Feb-26 13:26 225 4 gusting 6 20.6
2015-Feb-26 13:16 315 3 gusting 6 20.6
2015-Feb-26 13:06 225 5 gusting 7 20.6
2015-Feb-26 12:56 180 3 gusting 6 20.6
2015-Feb-26 12:46 180 3 gusting 6 20.0
2015-Feb-26 12:36 180 5 gusting 8 20.6
2015-Feb-26 12:26 315 2 gusting 3 21.7
2015-Feb-26 12:16 045 1 gusting 3 22.2
2015-Feb-26 12:06 270 1 gusting 3 21.7
2015-Feb-26 11:56 090 2 gusting 5 21.7
2015-Feb-26 11:46 090 1 gusting 2 22.2
2015-Feb-26 11:36 045 2 gusting 5 21.7
2015-Feb-26 11:26 045 0 gusting 2 21.7
2015-Feb-26 11:16 292 1 gusting 2 21.1
2015-Feb-26 11:06 270 0 gusting 2 20.6
2015-Feb-26 10:56 20.0
2015-Feb-26 10:46 180 1 gusting 3 20.0
2015-Feb-26 10:36 20.0
2015-Feb-26 10:26 315 3 gusting 5 18.9
2015-Feb-26 10:16 315 3 gusting 5 18.9
2015-Feb-26 10:06 315 0 gusting 5 18.3
2015-Feb-26 09:56 315 1 gusting 2 18.3
2015-Feb-26 09:46 17.8
2015-Feb-26 09:36 315 1 gusting 3 17.8
2015-Feb-26 09:26 315 5 gusting 6 17.8
2015-Feb-26 09:16 337 2 gusting 5 17.2
2015-Feb-26 09:06 315 1 gusting 4 16.7
2015-Feb-26 08:56 270 2 gusting 5 16.7
2015-Feb-26 08:46 315 1 gusting 3 16.7
2015-Feb-26 08:36 16.7
2015-Feb-26 08:26 022 5 gusting 6 16.7
2015-Feb-26 08:16 315 2 gusting 4 16.1
2015-Feb-26 08:06 202 1 gusting 3 15.6
2015-Feb-26 07:56 270 3 gusting 6 15.6
2015-Feb-26 07:46 15.0
2015-Feb-26 07:36 315 1 gusting 2 15.0
2015-Feb-26 07:26 315 15.0
2015-Feb-26 07:16 315 4 gusting 6 15.0
2015-Feb-26 07:06 270 2 gusting 4 15.0
2015-Feb-26 06:56 315 4 gusting 6 15.0
2015-Feb-26 06:46 022 2 gusting 4 15.0
2015-Feb-26 06:36 270 1 gusting 3 15.0
2015-Feb-26 06:26 315 2 gusting 6 14.4
2015-Feb-26 06:16 090 2 gusting 6 14.4
2015-Feb-26 06:06 315 0 gusting 2 14.4
2015-Feb-26 05:56 045 1 gusting 2 14.4
2015-Feb-26 05:46 270 1 gusting 4 14.4
2015-Feb-26 05:36 337 2 gusting 5 14.4
2015-Feb-26 05:26 14.4
2015-Feb-26 05:16 180 1 gusting 2 14.4
2015-Feb-26 05:09 315 0 gusting 2 15.0
2015-Feb-26 04:56 315 2 gusting 5 15.0
2015-Feb-26 04:46 225 1 gusting 4 15.0
2015-Feb-26 04:36 225 1 gusting 3 15.0
2015-Feb-26 04:26 315 3 gusting 7 15.0
2015-Feb-26 04:16 315 5 gusting 10 15.0
2015-Feb-26 04:06 225 1 gusting 2 15.0
2015-Feb-26 03:56 15.0
2015-Feb-26 03:46 15.0
2015-Feb-26 03:36 15.0
2015-Feb-26 03:26 15.0
2015-Feb-26 03:16 292 3 gusting 7 15.0
2015-Feb-26 03:06 045 4 gusting 7 15.0
2015-Feb-26 02:56 337 3 gusting 6 15.0
2015-Feb-26 02:46 15.0
2015-Feb-26 02:36 270 2 gusting 6 15.0
2015-Feb-26 02:26 270 3 gusting 5 15.0
2015-Feb-26 02:16 270 2 gusting 6 15.0
2015-Feb-26 02:06 315 1 gusting 2 15.0
2015-Feb-26 01:56 045 2 gusting 5 15.0
2015-Feb-26 01:46 292 3 gusting 7 15.0
2015-Feb-26 01:36 315 4 gusting 7 15.0
2015-Feb-26 01:26 315 2 gusting 5 15.0
2015-Feb-26 01:16 15.0
2015-Feb-26 01:06 315 3 gusting 6 15.0
2015-Feb-26 00:56 270 3 gusting 5 15.0
2015-Feb-26 00:46 15.0
2015-Feb-26 00:36 315 3 gusting 6 15.0
2015-Feb-26 00:26 15.0
2015-Feb-26 00:16 292 6 gusting 10 15.0
2015-Feb-26 00:06 315 2 gusting 5 15.0
2015-Feb-25 23:56 045 2 gusting 5 15.0
2015-Feb-25 23:46 15.0
2015-Feb-25 23:36 315 3 gusting 7 15.0
2015-Feb-25 23:26 045 5 gusting 10 15.0
2015-Feb-25 23:16 315 4 gusting 7 15.0
2015-Feb-25 23:06 315 5 gusting 8 15.0
2015-Feb-25 22:56 315 2 gusting 5 15.0
2015-Feb-25 22:46 15.0
2015-Feb-25 22:36 045 5 gusting 6 15.0
2015-Feb-25 22:26 15.0
2015-Feb-25 22:16 15.0
2015-Feb-25 22:06 270 1 gusting 3 15.0
2015-Feb-25 21:56 045 1 gusting 3 15.0
2015-Feb-25 21:46 090 3 gusting 7 15.0
2015-Feb-25 21:36 15.0
2015-Feb-25 21:26 225 7 gusting 15 15.0
2015-Feb-25 21:16 315 4 gusting 7 15.0
2015-Feb-25 21:06 045 6 gusting 8 15.0
2015-Feb-25 20:56 315 4 gusting 6 15.0
2015-Feb-25 20:46 270 2 gusting 5 15.0
2015-Feb-25 20:36 270 3 gusting 10 15.0
2015-Feb-25 20:26 15.6
2015-Feb-25 20:16 15.6
2015-Feb-25 20:06 337 4 gusting 7 15.6
2015-Feb-25 19:56 15.6
2015-Feb-25 19:46 315 10 gusting 33 15.6
2015-Feb-25 19:36 15.6
2015-Feb-25 19:26 045 3 gusting 10 15.6
2015-Feb-25 19:16 315 6 gusting 10 16.1
2015-Feb-25 19:06 15.6
2015-Feb-25 18:56 315 5 gusting 13 15.6
2015-Feb-25 18:46 315 5 gusting 7 15.6
2015-Feb-25 18:36 045 5 gusting 9 15.6
2015-Feb-25 18:26 045 4 gusting 11 15.6
2015-Feb-25 18:16 15.6
2015-Feb-25 18:06 315 4 gusting 7 15.6
2015-Feb-25 17:56 315 2 gusting 5 15.6
2015-Feb-25 17:46 337 4 gusting 11 15.6
2015-Feb-25 17:36 067 0 gusting 1 15.6
2015-Feb-25 17:26 067 0 gusting 2 16.1
2015-Feb-25 17:16 337 6 gusting 9 16.1
2015-Feb-25 17:06 16.7
2015-Feb-25 16:56 16.7
2015-Feb-25 16:46 315 3 gusting 7 16.7
2015-Feb-25 16:36 315 3 gusting 6 16.7
2015-Feb-25 16:26 315 1 gusting 5 17.2
2015-Feb-25 16:16 090 2 gusting 5 17.2
2015-Feb-25 16:06 315 3 gusting 7 17.2
2015-Feb-25 15:56 315 5 gusting 6 17.8
2015-Feb-25 15:46 315 6 gusting 12 17.8
2015-Feb-25 15:36 022 5 gusting 8 17.8
2015-Feb-25 15:26 315 3 gusting 7 17.8
2015-Feb-25 15:16 315 5 gusting 7 17.2
2015-Feb-25 15:06 17.8
2015-Feb-25 14:56 17.8
2015-Feb-25 14:46 337 5 gusting 10 17.8
2015-Feb-25 14:36 045 4 gusting 6 17.8
2015-Feb-25 14:26 18.3
2015-Feb-25 14:16 315 1 gusting 2 17.8
2015-Feb-25 14:06 315 3 gusting 7 17.8
2015-Feb-25 13:56 17.8
2015-Feb-25 13:46 315 2 gusting 5 17.8
2015-Feb-25 13:36 315 3 gusting 6 17.2
2015-Feb-25 13:26 270 5 gusting 7 17.2
2015-Feb-25 13:16 17.2
2015-Feb-25 13:07 315 3 gusting 7 16.1
2015-Feb-25 12:56 045 5 gusting 10 16.1
2015-Feb-25 12:46 045 5 gusting 7 16.1
2015-Feb-25 12:36 045 6 gusting 12 15.6
2015-Feb-25 12:26 292 5 gusting 11 16.1
2015-Feb-25 12:16 16.1
2015-Feb-25 12:06 16.1
2015-Feb-25 11:56 315 1 gusting 2 16.1
2015-Feb-25 11:46 315 5 gusting 10 16.1
2015-Feb-25 11:36 045 5 gusting 8 16.1